Time;durP1;ratioP1;P1;durP2;ratioP2;P2;SDS_P1;SDS_P2;PMS_P1;PMS_P2;Temp;Humidity;BMP_temperature;BMP_pressure;BME280_temperature;BME280_humidity;BME280_pressure;Samples;Min_cycle;Max_cycle;Signal;HPM_P1;HPM_P2
2021/06/02 00:01:16;;;;;;;2.75;0.28;;;11.40;92.40;;;;;;5048063;28;20870;-71
2021/06/02 00:03:43;;;;;;;0.20;0.20;;;11.40;92.20;;;;;;5048348;28;20188;-72
2021/06/02 00:06:10;;;;;;;0.35;0.35;;;11.40;92.20;;;;;;5047946;28;20915;-72
2021/06/02 00:08:37;;;;;;;0.88;0.20;;;11.40;91.90;;;;;;5044887;28;20577;-71
2021/06/02 00:11:06;;;;;;;0.30;0.30;;;11.40;91.90;;;;;;5048879;28;20194;-71
2021/06/02 00:13:34;;;;;;;0.30;0.30;;;11.40;91.70;;;;;;5051203;28;20179;-71
2021/06/02 00:16:00;;;;;;;0.20;0.20;;;11.40;91.70;;;;;;5042478;28;20187;-71
2021/06/02 00:18:26;;;;;;;0.50;0.25;;;11.40;91.50;;;;;;5048975;28;20668;-73
2021/06/02 00:20:52;;;;;;;0.10;0.10;;;11.40;91.10;;;;;;5048440;28;20257;-71
2021/06/02 00:23:18;;;;;;;0.30;0.20;;;11.40;90.90;;;;;;5056381;28;20179;-71
2021/06/02 00:25:44;;;;;;;0.20;0.20;;;11.40;90.70;;;;;;5048106;28;20702;-71
2021/06/02 00:28:11;;;;;;;0.43;0.32;;;11.40;90.80;;;;;;5052494;28;20219;-71
2021/06/02 00:30:39;;;;;;;0.20;0.20;;;11.40;90.70;;;;;;5052618;28;20180;-71
2021/06/02 00:33:06;;;;;;;0.43;0.20;;;11.40;90.80;;;;;;5045860;28;20187;-71
2021/06/02 00:35:31;;;;;;;0.20;0.20;;;11.40;90.70;;;;;;5052038;28;20215;-71
2021/06/02 00:37:58;;;;;;;0.30;0.30;;;11.40;90.70;;;;;;5049574;28;20219;-71
2021/06/02 00:40:56;;;;;;;0.20;0.20;;;11.40;90.60;;;;;;5047013;28;20190;-71
2021/06/02 00:43:21;;;;;;;0.20;0.20;;;11.40;90.80;;;;;;4997990;28;20194;-71
2021/06/02 00:45:47;;;;;;;0.20;0.20;;;11.40;90.70;;;;;;5003479;28;21259;-71
2021/06/02 00:48:15;;;;;;;0.20;0.20;;;11.40;90.70;;;;;;4997736;28;20255;-72
2021/06/02 00:50:46;;;;;;;0.10;0.10;;;11.40;90.50;;;;;;5004882;28;20181;-72
2021/06/02 00:53:13;;;;;;;2.10;0.20;;;11.40;90.30;;;;;;5008550;28;20290;-72
2021/06/02 00:55:39;;;;;;;0.10;0.10;;;11.40;90.30;;;;;;5006745;28;20178;-72
2021/06/02 00:58:33;;;;;;;0.55;0.20;;;11.40;90.20;;;;;;5007503;28;20188;-72
2021/06/02 01:00:59;;;;;;;0.28;0.28;;;11.40;90.10;;;;;;4910594;29;20240;-71
2021/06/02 01:03:28;;;;;;;0.10;0.10;;;11.40;90.10;;;;;;4912048;29;20894;-72
2021/06/02 01:05:57;;;;;;;0.10;0.10;;;11.50;89.90;;;;;;4911531;29;20203;-71
2021/06/02 01:08:23;;;;;;;0.10;0.10;;;11.50;89.80;;;;;;4914507;29;20188;-72
2021/06/02 01:10:51;;;;;;;0.20;0.20;;;11.50;90.00;;;;;;4911173;29;20765;-72
2021/06/02 01:13:19;;;;;;;0.20;0.20;;;11.50;90.10;;;;;;4901894;29;20201;-71
2021/06/02 01:15:48;;;;;;;0.20;0.20;;;11.60;89.90;;;;;;4901370;29;20259;-72
2021/06/02 01:18:14;;;;;;;0.40;0.20;;;11.50;89.70;;;;;;4918463;28;20206;-72
2021/06/02 01:20:40;;;;;;;0.20;0.20;;;11.50;89.80;;;;;;4970567;28;20255;-72
2021/06/02 01:23:10;;;;;;;0.25;0.25;;;11.50;89.70;;;;;;4969032;28;20190;-72
2021/06/02 01:25:36;;;;;;;0.28;0.28;;;11.50;89.90;;;;;;4970012;28;20218;-72
2021/06/02 01:28:04;;;;;;;0.25;0.25;;;11.40;89.70;;;;;;4968177;28;20225;-72
2021/06/02 01:30:31;;;;;;;0.20;0.20;;;11.40;89.60;;;;;;4968711;28;20202;-73
2021/06/02 01:33:07;;;;;;;0.30;0.30;;;11.40;89.60;;;;;;4972468;28;20182;-71
2021/06/02 01:35:58;;;;;;;0.30;0.30;;;11.30;89.80;;;;;;4969101;28;20232;-72
2021/06/02 01:39:01;;;;;;;0.40;0.40;;;11.20;89.80;;;;;;5030937;28;20729;-72
2021/06/02 01:41:31;;;;;;;0.30;0.30;;;11.20;90.20;;;;;;5044384;28;20653;-71
2021/06/02 01:44:34;;;;;;;0.28;0.28;;;11.10;90.50;;;;;;5050015;28;20736;-71
2021/06/02 01:47:06;;;;;;;0.40;0.40;;;11.00;90.20;;;;;;5020825;28;20919;-71
2021/06/02 01:49:50;;;;;;;0.30;0.30;;;11.00;90.60;;;;;;5023803;28;20201;-71
2021/06/02 01:52:34;;;;;;;0.30;0.30;;;10.90;90.70;;;;;;5038129;28;20200;-71
2021/06/02 01:55:28;;;;;;;0.30;0.30;;;10.90;91.10;;;;;;5029949;28;20684;-71
2021/06/02 01:58:34;;;;;;;0.20;0.20;;;10.80;91.20;;;;;;5027216;28;20206;-72
2021/06/02 02:01:21;;;;;;;0.40;0.40;;;10.70;91.50;;;;;;5038754;28;20183;-71
2021/06/02 02:04:05;;;;;;;0.40;0.30;;;10.60;91.70;;;;;;5034408;28;20257;-71
2021/06/02 02:06:49;;;;;;;1.30;0.38;;;10.60;92.00;;;;;;5025045;28;20353;-71
2021/06/02 02:09:48;;;;;;;0.30;0.30;;;10.50;91.80;;;;;;5030642;28;21397;-71
2021/06/02 02:12:47;;;;;;;0.38;0.38;;;10.50;92.20;;;;;;5010741;28;20191;-71
2021/06/02 02:15:51;;;;;;;0.30;0.30;;;10.40;92.30;;;;;;5039105;28;20211;-71
2021/06/02 02:18:41;;;;;;;0.30;0.30;;;10.40;92.30;;;;;;5028966;28;20211;-71
2021/06/02 02:21:19;;;;;;;0.30;0.30;;;10.40;92.50;;;;;;5031151;28;20252;-71
2021/06/02 02:24:16;;;;;;;1.55;0.40;;;10.30;92.70;;;;;;5037498;28;20203;-72
2021/06/02 02:27:00;;;;;;;1.60;0.60;;;10.30;92.70;;;;;;5047769;28;20214;-71
2021/06/02 02:30:02;;;;;;;0.50;0.50;;;10.20;93.20;;;;;;5051363;28;20199;-71
2021/06/02 02:32:49;;;;;;;0.60;0.60;;;10.20;93.40;;;;;;5047009;28;20198;-71
2021/06/02 02:35:45;;;;;;;0.90;0.90;;;10.20;94.00;;;;;;5049805;28;20946;-71
2021/06/02 02:38:27;;;;;;;0.70;0.70;;;10.20;94.00;;;;;;5042896;28;20248;-71
2021/06/02 02:41:12;;;;;;;0.93;0.93;;;10.20;94.10;;;;;;5049137;28;20184;-71
2021/06/02 02:43:57;;;;;;;0.90;0.90;;;10.30;93.90;;;;;;5049343;28;20252;-71
2021/06/02 02:46:57;;;;;;;1.25;1.25;;;10.30;94.20;;;;;;5043822;28;20246;-70
2021/06/02 02:49:46;;;;;;;1.30;1.30;;;10.30;94.20;;;;;;5001565;28;20205;-71
2021/06/02 02:52:40;;;;;;;1.50;1.40;;;10.40;94.20;;;;;;5019461;28;20274;-71
2021/06/02 02:55:18;;;;;;;1.43;1.37;;;10.40;94.10;;;;;;5012463;28;20204;-70
2021/06/02 02:58:09;;;;;;;1.23;1.23;;;10.40;94.20;;;;;;5013535;28;20279;-71
2021/06/02 03:00:53;;;;;;;3.20;1.80;;;10.40;94.00;;;;;;5014747;28;20200;-70
2021/06/02 03:03:23;;;;;;;2.33;1.98;;;10.40;94.30;;;;;;5015336;28;20192;-71
2021/06/02 03:06:01;;;;;;;1.40;1.40;;;10.50;94.20;;;;;;5013598;28;20279;-71
2021/06/02 03:08:36;;;;;;;1.30;1.30;;;10.50;94.20;;;;;;5002752;28;20231;-72
2021/06/02 03:11:12;;;;;;;2.97;1.70;;;10.50;94.10;;;;;;4999952;28;20195;-72
2021/06/02 03:13:50;;;;;;;2.40;1.57;;;10.50;94.00;;;;;;5005755;28;20208;-72
2021/06/02 03:16:29;;;;;;;3.43;1.40;;;10.50;93.70;;;;;;5005803;28;20189;-71
2021/06/02 03:19:08;;;;;;;1.77;1.75;;;10.50;93.60;;;;;;5006194;28;20256;-71
2021/06/02 03:21:59;;;;;;;1.80;1.70;;;10.50;93.50;;;;;;5004494;28;20184;-72
2021/06/02 03:24:28;;;;;;;2.10;2.00;;;10.50;93.60;;;;;;4999356;28;20176;-72
2021/06/02 03:27:02;;;;;;;2.00;1.90;;;10.50;94.00;;;;;;5037420;28;20737;-72
2021/06/02 03:29:53;;;;;;;1.80;1.77;;;10.50;93.90;;;;;;5048499;28;20179;-71
2021/06/02 03:32:40;;;;;;;1.90;1.80;;;10.50;94.20;;;;;;5046465;28;20179;-73
2021/06/02 03:35:37;;;;;;;5.80;1.80;;;10.50;93.90;;;;;;5060857;28;20206;-72
2021/06/02 03:38:14;;;;;;;3.08;2.17;;;10.50;94.10;;;;;;5048247;28;20191;-72
2021/06/02 03:41:04;;;;;;;2.40;2.30;;;10.50;94.30;;;;;;5048768;28;20217;-72
2021/06/02 03:43:35;;;;;;;2.50;2.40;;;10.50;94.30;;;;;;5036493;28;20672;-72
2021/06/02 03:46:38;;;;;;;2.17;2.17;;;10.40;94.30;;;;;;5044349;28;20182;-73
2021/06/02 03:49:15;;;;;;;5.20;2.70;;;10.40;94.30;;;;;;5047407;28;20573;-72
2021/06/02 03:51:50;;;;;;;2.60;2.50;;;10.40;94.70;;;;;;5047316;28;20176;-72
2021/06/02 03:54:26;;;;;;;2.78;2.63;;;10.50;94.50;;;;;;5047845;28;20176;-72
2021/06/02 03:56:55;;;;;;;2.40;2.30;;;10.50;94.60;;;;;;5047947;28;20626;-71
2021/06/02 03:59:40;;;;;;;2.05;1.95;;;10.60;94.60;;;;;;5034912;28;20183;-72
2021/06/02 04:02:24;;;;;;;2.65;2.55;;;10.70;94.00;;;;;;5047391;28;20178;-70
2021/06/02 04:05:16;;;;;;;2.00;1.95;;;10.80;94.00;;;;;;5048107;28;20242;-71
2021/06/02 04:08:00;;;;;;;2.35;2.15;;;10.80;93.70;;;;;;5036919;28;20215;-74
2021/06/02 04:10:40;;;;;;;2.25;2.20;;;10.90;93.90;;;;;;5048546;28;20179;-71
2021/06/02 04:13:41;;;;;;;2.45;2.33;;;11.00;93.60;;;;;;5048156;28;20184;-72
2021/06/02 04:16:15;;;;;;;2.38;2.28;;;11.10;93.40;;;;;;5047409;28;20202;-71
2021/06/02 04:18:46;;;;;;;3.10;3.00;;;11.30;93.50;;;;;;5053094;28;20179;-71
2021/06/02 04:21:15;;;;;;;2.85;2.75;;;11.40;93.10;;;;;;5047544;28;20172;-72
2021/06/02 04:23:43;;;;;;;3.17;2.95;;;11.50;92.60;;;;;;5048704;28;20210;-72
2021/06/02 04:26:10;;;;;;;2.67;2.58;;;11.60;92.60;;;;;;5046132;28;20218;-72
2021/06/02 04:28:37;;;;;;;2.85;2.75;;;11.70;92.20;;;;;;5048925;28;20245;-71
2021/06/02 04:31:06;;;;;;;3.13;3.03;;;11.80;91.60;;;;;;5040588;28;20202;-72
2021/06/02 04:33:34;;;;;;;2.40;2.30;;;11.90;91.50;;;;;;5046127;28;20244;-72
2021/06/02 04:36:00;;;;;;;3.03;2.92;;;12.00;91.30;;;;;;5048547;28;20188;-72
2021/06/02 04:38:26;;;;;;;2.97;2.88;;;12.00;91.20;;;;;;5046462;28;20723;-72
2021/06/02 04:40:53;;;;;;;3.30;3.20;;;12.00;90.90;;;;;;5047714;28;20184;-72
2021/06/02 04:43:20;;;;;;;2.92;2.75;;;12.00;90.80;;;;;;5046668;28;20203;-72
2021/06/02 04:46:01;;;;;;;2.70;2.60;;;12.00;91.00;;;;;;5041502;28;20733;-71
2021/06/02 04:48:28;;;;;;;3.40;3.22;;;12.00;90.90;;;;;;5047632;28;20635;-72
2021/06/02 04:51:31;;;;;;;3.55;3.33;;;12.00;91.00;;;;;;5046139;28;20187;-72
2021/06/02 04:53:57;;;;;;;3.15;2.80;;;12.00;91.10;;;;;;5048570;28;20663;-71
2021/06/02 04:56:56;;;;;;;3.20;3.00;;;11.90;91.30;;;;;;5046840;28;20191;-72
2021/06/02 04:59:31;;;;;;;3.30;2.55;;;11.90;91.30;;;;;;5048620;28;20243;-73
2021/06/02 05:02:15;;;;;;;3.08;2.97;;;11.90;91.40;;;;;;5046412;28;20187;-70
2021/06/02 05:04:59;;;;;;;2.63;2.53;;;11.90;91.30;;;;;;5046348;28;20184;-70
2021/06/02 05:08:12;;;;;;;6.18;2.63;;;12.00;91.10;;;;;;5048086;28;20215;-72
2021/06/02 05:10:56;;;;;;;2.75;2.53;;;12.00;91.10;;;;;;5046738;28;20187;-73
2021/06/02 05:13:46;;;;;;;3.17;3.08;;;12.00;91.00;;;;;;5046264;28;20710;-73
2021/06/02 05:16:20;;;;;;;4.72;2.83;;;12.10;90.50;;;;;;5042079;28;20252;-71
2021/06/02 05:20:03;;;;;;;2.50;2.40;;;12.10;90.60;;;;;;5039931;28;20709;-71
2021/06/02 05:22:57;;;;;;;2.95;2.75;;;12.20;90.60;;;;;;5046108;28;20199;-70
2021/06/02 05:25:45;;;;;;;6.68;2.70;;;12.20;90.20;;;;;;5042011;28;20656;-72
2021/06/02 05:28:37;;;;;;;3.20;2.92;;;12.30;89.90;;;;;;5043019;28;20215;-70
2021/06/02 05:31:06;;;;;;;3.28;3.10;;;12.30;90.20;;;;;;5044076;28;20278;-71
2021/06/02 05:33:37;;;;;;;3.20;3.10;;;12.40;90.00;;;;;;5045752;28;20266;-70
2021/06/02 05:36:03;;;;;;;2.72;2.63;;;12.40;89.70;;;;;;5047163;28;20195;-70
2021/06/02 05:38:29;;;;;;;2.38;2.28;;;12.50;89.70;;;;;;5049134;28;20179;-72
2021/06/02 05:41:07;;;;;;;3.55;3.30;;;12.50;89.60;;;;;;5046902;28;20215;-72
2021/06/02 05:43:39;;;;;;;2.88;2.78;;;12.50;89.30;;;;;;5048165;28;20273;-71
2021/06/02 05:46:24;;;;;;;2.97;2.83;;;12.60;89.50;;;;;;5049908;28;20692;-72
2021/06/02 05:49:08;;;;;;;3.22;3.13;;;12.60;89.60;;;;;;5050802;28;20575;-74
2021/06/02 05:51:58;;;;;;;3.05;2.97;;;12.70;89.50;;;;;;5051018;28;20183;-73
2021/06/02 05:55:01;;;;;;;3.65;3.40;;;12.70;89.30;;;;;;5042692;28;20187;-73
2021/06/02 05:57:33;;;;;;;2.63;2.53;;;12.80;89.20;;;;;;5047984;28;20290;-73
2021/06/02 06:00:23;;;;;;;3.38;2.55;;;12.90;89.20;;;;;;5048548;28;20180;-73
2021/06/02 06:03:23;;;;;;;5.63;3.22;;;13.00;88.70;;;;;;5046462;28;20183;-73
2021/06/02 06:06:01;;;;;;;2.72;2.63;;;13.00;88.00;;;;;;5049006;28;20171;-73
2021/06/02 06:09:05;;;;;;;3.58;3.10;;;13.10;87.70;;;;;;5050470;28;20620;-73
2021/06/02 06:11:45;;;;;;;3.10;3.00;;;13.20;87.50;;;;;;5043311;28;20183;-73
2021/06/02 06:14:16;;;;;;;2.97;2.85;;;13.30;87.10;;;;;;5046935;28;20240;-73
2021/06/02 06:17:17;;;;;;;3.15;2.95;;;13.40;87.10;;;;;;5049539;28;20210;-73
2021/06/02 06:20:15;;;;;;;2.58;2.47;;;13.50;86.50;;;;;;5043616;28;20279;-72
2021/06/02 06:23:19;;;;;;;7.10;2.40;;;13.50;85.90;;;;;;5040873;28;20187;-73
2021/06/02 06:26:26;;;;;;;3.90;2.28;;;13.50;86.10;;;;;;5045981;28;20179;-73
2021/06/02 06:29:08;;;;;;;3.53;2.35;;;13.60;85.80;;;;;;5003640;28;20204;-71
2021/06/02 06:31:38;;;;;;;3.72;2.10;;;13.60;85.10;;;;;;5007413;28;20219;-72
2021/06/02 06:34:09;;;;;;;4.25;2.88;;;13.70;85.40;;;;;;5001630;28;20220;-72
2021/06/02 06:36:37;;;;;;;2.58;2.40;;;13.80;85.70;;;;;;5007442;28;20247;-72
2021/06/02 06:39:28;;;;;;;3.35;2.80;;;13.80;84.80;;;;;;5007070;28;20192;-72
2021/06/02 06:41:55;;;;;;;2.42;1.98;;;13.90;84.80;;;;;;5007108;28;20188;-72
2021/06/02 06:44:22;;;;;;;2.72;2.40;;;13.90;85.00;;;;;;5006956;28;20709;-73
2021/06/02 06:46:53;;;;;;;3.38;2.30;;;13.90;84.70;;;;;;5006938;28;20223;-73
2021/06/02 06:49:22;;;;;;;2.22;2.22;;;13.90;84.60;;;;;;5006596;28;20213;-72
2021/06/02 06:51:52;;;;;;;2.00;2.00;;;13.80;84.30;;;;;;5006957;28;20199;-72
2021/06/02 06:54:20;;;;;;;4.57;2.33;;;13.90;84.70;;;;;;5007247;28;20185;-72
2021/06/02 06:56:47;;;;;;;1.65;1.65;;;13.90;84.70;;;;;;5007062;28;20745;-72
2021/06/02 06:59:18;;;;;;;2.88;2.22;;;14.00;84.60;;;;;;5006722;28;20197;-73
2021/06/02 07:01:46;;;;;;;2.78;2.67;;;14.00;83.80;;;;;;5007051;28;20630;-74
2021/06/02 07:04:12;;;;;;;3.92;2.22;;;14.00;83.90;;;;;;5022895;28;20188;-73
2021/06/02 07:06:38;;;;;;;2.90;1.63;;;14.00;84.00;;;;;;5048887;28;20203;-74
2021/06/02 07:09:05;;;;;;;1.70;1.60;;;14.10;84.20;;;;;;5045292;28;20210;-72
2021/06/02 07:11:37;;;;;;;5.80;2.15;;;14.20;84.30;;;;;;5048883;28;20180;-72
2021/06/02 07:14:04;;;;;;;1.42;1.42;;;14.30;84.20;;;;;;5046972;28;20649;-72
2021/06/02 07:16:31;;;;;;;6.05;1.60;;;14.50;82.60;;;;;;5048879;28;20266;-72
2021/06/02 07:18:59;;;;;;;1.55;1.45;;;14.60;82.30;;;;;;5048726;28;20226;-73
2021/06/02 07:21:26;;;;;;;6.90;1.90;;;14.70;82.20;;;;;;5048623;28;20168;-73
2021/06/02 07:23:52;;;;;;;2.95;1.80;;;14.80;82.10;;;;;;5048644;28;20194;-73
2021/06/02 07:26:18;;;;;;;1.73;1.73;;;14.90;82.20;;;;;;5048813;28;20179;-73
2021/06/02 07:28:44;;;;;;;1.67;1.58;;;15.00;81.80;;;;;;5049074;28;20175;-73
2021/06/02 07:31:10;;;;;;;1.83;1.83;;;15.00;80.60;;;;;;5048818;28;20176;-73
2021/06/02 07:33:38;;;;;;;4.03;2.05;;;15.10;80.70;;;;;;5040539;28;20184;-73
2021/06/02 07:36:05;;;;;;;1.77;1.67;;;15.10;80.20;;;;;;5048702;28;20187;-75
2021/06/02 07:38:32;;;;;;;1.45;1.45;;;15.10;80.50;;;;;;5048337;28;20718;-74
2021/06/02 07:40:58;;;;;;;2.10;1.98;;;15.10;80.90;;;;;;5048260;28;20199;-74
2021/06/02 07:43:24;;;;;;;1.65;1.65;;;15.20;81.00;;;;;;5048075;28;20641;-73
2021/06/02 07:45:49;;;;;;;1.63;1.63;;;15.30;81.00;;;;;;5048184;28;20176;-74
2021/06/02 07:48:15;;;;;;;4.03;1.50;;;15.40;81.10;;;;;;5046913;28;20830;-74
2021/06/02 07:50:41;;;;;;;3.55;1.58;;;15.50;80.90;;;;;;5048455;28;20176;-74
2021/06/02 07:53:07;;;;;;;10.25;1.52;;;15.70;80.90;;;;;;5048277;28;20182;-74
2021/06/02 07:55:33;;;;;;;1.35;1.35;;;15.80;79.90;;;;;;5048308;28;20179;-73
2021/06/02 07:57:59;;;;;;;1.40;1.30;;;15.90;79.40;;;;;;5048389;28;20183;-72
2021/06/02 08:00:25;;;;;;;1.85;1.30;;;16.00;78.00;;;;;;5046051;28;20206;-74
2021/06/02 08:02:51;;;;;;;2.05;1.38;;;16.10;78.30;;;;;;5047919;28;20219;-72
2021/06/02 08:05:17;;;;;;;1.45;1.45;;;16.20;78.20;;;;;;5047899;28;20205;-71
2021/06/02 08:07:44;;;;;;;1.27;1.27;;;16.30;77.60;;;;;;5044056;28;20604;-72
2021/06/02 08:10:12;;;;;;;1.40;1.40;;;16.40;77.20;;;;;;5047983;28;20203;-72
2021/06/02 08:12:38;;;;;;;1.40;1.40;;;16.40;76.40;;;;;;5047937;28;20207;-73
2021/06/02 08:15:06;;;;;;;1.42;1.42;;;16.40;76.80;;;;;;5047893;28;20286;-73
2021/06/02 08:17:31;;;;;;;1.42;1.40;;;16.40;76.80;;;;;;5048071;28;20210;-72
2021/06/02 08:19:57;;;;;;;1.70;1.58;;;16.40;75.90;;;;;;5047348;28;20222;-73
2021/06/02 08:22:23;;;;;;;1.08;1.08;;;16.30;75.90;;;;;;5047958;28;20191;-73
2021/06/02 08:24:48;;;;;;;1.10;1.10;;;16.40;76.90;;;;;;5047751;28;20180;-73
2021/06/02 08:27:14;;;;;;;1.77;1.65;;;16.50;77.10;;;;;;5047891;28;20731;-73
2021/06/02 08:29:40;;;;;;;1.67;1.60;;;16.60;77.00;;;;;;5047766;28;20183;-73
2021/06/02 08:32:07;;;;;;;1.80;1.60;;;16.80;76.60;;;;;;5047553;28;20746;-73
2021/06/02 08:34:33;;;;;;;3.10;1.35;;;16.80;75.70;;;;;;5047576;28;20179;-73
2021/06/02 08:36:59;;;;;;;3.60;1.40;;;16.90;75.50;;;;;;5047303;28;20217;-74
2021/06/02 08:39:25;;;;;;;0.95;0.95;;;16.90;75.70;;;;;;5047511;28;20175;-73
2021/06/02 08:41:51;;;;;;;1.20;1.15;;;16.90;75.50;;;;;;5047538;28;20171;-73
2021/06/02 08:44:19;;;;;;;1.40;1.30;;;17.00;73.70;;;;;;5047478;28;20204;-72
2021/06/02 08:46:47;;;;;;;1.00;1.00;;;16.90;72.40;;;;;;5047607;28;20200;-72
2021/06/02 08:49:16;;;;;;;0.90;0.90;;;16.90;73.90;;;;;;5046213;28;20683;-72
2021/06/02 08:51:42;;;;;;;2.00;1.17;;;16.90;72.30;;;;;;5047474;28;20176;-73
2021/06/02 08:54:08;;;;;;;1.15;1.15;;;16.90;72.90;;;;;;5047558;28;20175;-74
2021/06/02 08:56:40;;;;;;;0.98;0.98;;;16.90;73.00;;;;;;5047378;28;20175;-72
2021/06/02 08:59:06;;;;;;;0.80;0.80;;;17.00;73.20;;;;;;5040025;28;20333;-72
2021/06/02 09:01:34;;;;;;;0.85;0.85;;;17.10;73.50;;;;;;5047627;28;20278;-71
2021/06/02 09:04:04;;;;;;;0.80;0.80;;;17.20;72.80;;;;;;5047383;28;20185;-71
2021/06/02 09:06:31;;;;;;;1.95;1.05;;;17.40;73.20;;;;;;5040609;28;20264;-73
2021/06/02 09:08:57;;;;;;;1.20;1.20;;;17.60;72.20;;;;;;5047330;28;20180;-74
2021/06/02 09:11:23;;;;;;;0.88;0.88;;;17.70;71.80;;;;;;5047951;28;20182;-73
2021/06/02 09:13:49;;;;;;;3.25;1.23;;;17.90;73.00;;;;;;5051112;28;20191;-73
2021/06/02 09:16:27;;;;;;;1.45;1.40;;;18.00;72.50;;;;;;5051174;28;20795;-73
2021/06/02 09:19:03;;;;;;;1.30;1.10;;;18.20;72.80;;;;;;5044782;28;20262;-73
2021/06/02 09:21:37;;;;;;;1.35;1.35;;;18.40;72.60;;;;;;5042503;28;20184;-72
2021/06/02 09:24:03;;;;;;;1.10;1.10;;;18.60;71.80;;;;;;5051264;28;20183;-72
2021/06/02 09:26:32;;;;;;;1.00;1.00;;;18.90;70.80;;;;;;5050194;28;20194;-72
2021/06/02 09:29:00;;;;;;;0.95;0.90;;;19.00;69.40;;;;;;5051882;28;20171;-72
2021/06/02 09:31:44;;;;;;;2.40;0.82;;;19.00;69.00;;;;;;5052125;28;20194;-72
2021/06/02 09:34:25;;;;;;;5.10;1.15;;;19.00;68.80;;;;;;5043657;28;20192;-71
2021/06/02 09:37:13;;;;;;;0.90;0.90;;;19.00;67.80;;;;;;5053543;28;20623;-72
2021/06/02 09:39:44;;;;;;;2.45;1.17;;;18.90;68.20;;;;;;5050555;28;20172;-71
2021/06/02 09:42:18;;;;;;;1.00;1.00;;;18.90;68.50;;;;;;5052344;28;20210;-71
2021/06/02 09:45:06;;;;;;;1.42;0.95;;;18.80;68.90;;;;;;5055173;28;20212;-73
2021/06/02 09:47:53;;;;;;;1.05;1.05;;;18.70;68.40;;;;;;5054004;28;20881;-71
2021/06/02 09:50:25;;;;;;;1.20;1.20;;;18.70;68.80;;;;;;5049211;28;20188;-72
2021/06/02 09:52:52;;;;;;;2.90;1.80;;;18.70;69.90;;;;;;5045699;28;20191;-71
2021/06/02 09:55:33;;;;;;;1.70;1.60;;;18.80;70.90;;;;;;5050339;28;20183;-71
2021/06/02 09:58:01;;;;;;;1.73;1.65;;;18.80;69.60;;;;;;5050086;28;20179;-70
2021/06/02 10:00:29;;;;;;;4.88;1.40;;;18.90;70.90;;;;;;5047696;28;20592;-70
2021/06/02 10:03:12;;;;;;;1.67;1.58;;;18.90;69.50;;;;;;5045076;28;20263;-69
2021/06/02 10:05:43;;;;;;;1.85;1.75;;;18.90;70.00;;;;;;5047375;28;20179;-72
2021/06/02 10:08:11;;;;;;;5.57;4.82;;;19.00;70.40;;;;;;5047483;28;20203;-72
2021/06/02 10:10:38;;;;;;;2.85;1.70;;;19.00;68.60;;;;;;5056087;28;20187;-71
2021/06/02 10:13:11;;;;;;;1.65;1.00;;;19.10;68.50;;;;;;5054695;28;20180;-72
2021/06/02 10:15:39;;;;;;;1.63;1.33;;;19.00;69.30;;;;;;5052272;28;20191;-72
2021/06/02 10:18:22;;;;;;;3.15;1.00;;;19.00;68.20;;;;;;5056170;28;20276;-72
2021/06/02 10:21:02;;;;;;;1.02;1.02;;;19.00;68.60;;;;;;5056722;28;20572;-72
2021/06/02 10:23:30;;;;;;;1.23;1.23;;;18.90;68.10;;;;;;5053397;28;20285;-71
2021/06/02 10:25:57;;;;;;;1.10;1.10;;;18.90;69.30;;;;;;5057166;28;20684;-72
2021/06/02 10:28:25;;;;;;;1.85;1.00;;;18.90;69.50;;;;;;5053080;28;20203;-72
2021/06/02 10:30:51;;;;;;;1.17;1.17;;;18.90;69.20;;;;;;5049107;28;20179;-72
2021/06/02 10:33:17;;;;;;;1.40;1.30;;;19.00;70.00;;;;;;5052321;28;20194;-72
2021/06/02 10:35:42;;;;;;;1.25;1.13;;;19.00;70.00;;;;;;5053371;28;20179;-72
2021/06/02 10:38:10;;;;;;;2.28;1.05;;;19.10;69.90;;;;;;5057789;28;20202;-71
2021/06/02 10:40:39;;;;;;;1.00;1.00;;;19.20;70.00;;;;;;5054857;28;20622;-71
2021/06/02 10:43:15;;;;;;;1.52;1.00;;;19.30;69.40;;;;;;5054928;28;20175;-71
2021/06/02 10:45:53;;;;;;;1.95;1.15;;;19.30;68.30;;;;;;5052395;28;20178;-71
2021/06/02 10:48:38;;;;;;;8.18;1.50;;;19.30;67.90;;;;;;5050342;28;20650;-71
2021/06/02 10:51:04;;;;;;;1.67;1.10;;;19.30;68.20;;;;;;5058132;28;20587;-72
2021/06/02 10:53:30;;;;;;;1.25;1.23;;;19.30;68.20;;;;;;5052344;28;20183;-71
2021/06/02 10:55:58;;;;;;;1.20;1.10;;;19.30;68.60;;;;;;5052346;28;20190;-71
2021/06/02 10:58:31;;;;;;;1.10;1.10;;;19.30;68.80;;;;;;5054203;28;20217;-71
2021/06/02 11:01:06;;;;;;;1.20;1.15;;;19.30;68.80;;;;;;5055424;28;20630;-72
2021/06/02 11:03:34;;;;;;;1.20;1.20;;;19.40;69.10;;;;;;5058100;28;20199;-72
2021/06/02 11:06:15;;;;;;;1.55;1.45;;;19.40;68.70;;;;;;5056671;28;20732;-72
2021/06/02 11:08:52;;;;;;;2.25;1.38;;;19.40;68.90;;;;;;5055926;28;20202;-71
2021/06/02 11:11:27;;;;;;;1.30;1.20;;;19.40;69.40;;;;;;5059251;28;20683;-72
2021/06/02 11:16:50;;;;;;;1.15;1.15;;;19.50;68.80;;;;;;5059339;28;20604;-71
2021/06/02 11:19:27;;;;;;;1.52;1.23;;;19.40;69.40;;;;;;5059116;28;20175;-71
2021/06/02 11:21:53;;;;;;;1.40;1.40;;;19.40;69.40;;;;;;5057833;28;20263;-72
2021/06/02 11:24:31;;;;;;;3.25;1.30;;;19.40;69.40;;;;;;5056402;28;20673;-72
2021/06/02 11:27:12;;;;;;;1.85;1.33;;;19.50;69.40;;;;;;5054045;28;20625;-72
2021/06/02 11:29:50;;;;;;;1.55;1.45;;;19.50;69.80;;;;;;5057148;28;20198;-72
2021/06/02 11:32:18;;;;;;;4.03;1.52;;;19.60;69.90;;;;;;5055820;28;20314;-72
2021/06/02 11:34:45;;;;;;;1.30;1.30;;;19.70;70.10;;;;;;5052971;28;20183;-71
2021/06/02 11:37:15;;;;;;;2.15;1.35;;;19.90;70.20;;;;;;5052704;28;20183;-71
2021/06/02 11:39:42;;;;;;;1.45;1.40;;;20.20;70.10;;;;;;5055317;28;20219;-71
2021/06/02 11:42:27;;;;;;;1.30;1.30;;;20.90;69.10;;;;;;5055352;28;20186;-72
2021/06/02 11:45:05;;;;;;;2.60;1.40;;;21.50;68.20;;;;;;5053831;28;20190;-71
2021/06/02 11:47:31;;;;;;;1.90;1.80;;;21.80;67.80;;;;;;5054331;28;20218;-71
2021/06/02 11:50:07;;;;;;;4.93;1.77;;;22.00;67.00;;;;;;5057719;28;20653;-72
2021/06/02 11:52:32;;;;;;;2.08;2.00;;;22.10;66.20;;;;;;5055917;28;20265;-71
2021/06/02 11:55:01;;;;;;;3.70;2.53;;;22.10;66.50;;;;;;5053163;28;20263;-72
2021/06/02 11:57:31;;;;;;;1.90;1.90;;;22.10;66.90;;;;;;5053096;28;20276;-72
2021/06/02 12:00:04;;;;;;;2.55;2.28;;;22.00;67.10;;;;;;5054470;28;20179;-71
2021/06/02 12:02:30;;;;;;;3.40;1.63;;;21.90;66.70;;;;;;5050221;28;20191;-72
2021/06/02 12:05:14;;;;;;;4.40;1.75;;;21.80;66.20;;;;;;5052556;28;20686;-72
2021/06/02 12:08:06;;;;;;;1.70;1.67;;;21.80;66.70;;;;;;5055660;28;20268;-72
2021/06/02 12:10:43;;;;;;;1.77;1.73;;;21.80;67.30;;;;;;5053329;28;20203;-72
2021/06/02 12:13:24;;;;;;;3.10;1.65;;;22.00;66.70;;;;;;5052893;28;20179;-71
2021/06/02 12:15:55;;;;;;;2.53;1.70;;;22.20;67.10;;;;;;5051530;28;20179;-71
2021/06/02 12:18:45;;;;;;;2.35;1.60;;;22.60;65.70;;;;;;5054608;28;20180;-71
2021/06/02 12:21:18;;;;;;;1.33;1.33;;;23.00;64.40;;;;;;5057407;28;20183;-72
2021/06/02 12:23:52;;;;;;;1.23;1.23;;;23.10;63.50;;;;;;5049610;28;20636;-72
2021/06/02 12:26:32;;;;;;;5.38;1.33;;;22.90;63.10;;;;;;5051090;28;20682;-71
2021/06/02 12:29:01;;;;;;;1.15;1.15;;;22.70;63.90;;;;;;5054455;28;20183;-71
2021/06/02 12:31:29;;;;;;;1.40;1.40;;;22.50;64.50;;;;;;5051119;28;20577;-71
2021/06/02 12:34:05;;;;;;;2.47;1.75;;;22.30;64.70;;;;;;5052146;28;20187;-71
2021/06/02 12:36:32;;;;;;;1.33;1.33;;;22.00;65.40;;;;;;5052358;28;20643;-70
2021/06/02 12:39:03;;;;;;;1.58;1.13;;;21.80;65.40;;;;;;5052129;28;20186;-71
2021/06/02 12:41:29;;;;;;;1.08;1.08;;;21.70;65.80;;;;;;5050928;28;20180;-71
2021/06/02 12:44:00;;;;;;;2.83;1.75;;;21.70;65.40;;;;;;5053119;28;20202;-71
2021/06/02 12:46:26;;;;;;;2.05;1.17;;;21.90;64.60;;;;;;5055422;28;20182;-71
2021/06/02 12:48:52;;;;;;;1.40;1.40;;;22.40;64.20;;;;;;5056235;28;20191;-71
2021/06/02 12:51:20;;;;;;;1.52;1.40;;;22.90;61.90;;;;;;5056691;28;20207;-71
2021/06/02 12:53:47;;;;;;;2.85;1.30;;;23.10;60.50;;;;;;5056419;28;20175;-71
2021/06/02 12:56:14;;;;;;;1.67;1.30;;;23.30;61.40;;;;;;5056637;28;20207;-71
2021/06/02 12:58:41;;;;;;;1.42;1.25;;;23.30;59.60;;;;;;5057171;28;20186;-71
2021/06/02 13:01:12;;;;;;;3.90;1.48;;;23.10;60.10;;;;;;5048031;28;20631;-72
2021/06/02 13:03:53;;;;;;;1.13;1.13;;;22.90;61.30;;;;;;5053116;28;20184;-72
2021/06/02 13:06:25;;;;;;;1.02;1.02;;;22.70;61.90;;;;;;5047347;28;20190;-72
2021/06/02 13:08:51;;;;;;;1.30;1.30;;;22.50;61.50;;;;;;5050397;28;20669;-71
2021/06/02 13:11:20;;;;;;;1.10;1.10;;;22.30;62.30;;;;;;5046118;28;20183;-72
2021/06/02 13:13:49;;;;;;;1.00;1.00;;;22.10;62.50;;;;;;5051813;28;20195;-71
2021/06/02 13:16:16;;;;;;;1.65;1.38;;;21.90;61.70;;;;;;5049754;28;20175;-71
2021/06/02 13:18:42;;;;;;;4.38;1.48;;;21.70;62.00;;;;;;5049099;28;20384;-73
2021/06/02 13:21:17;;;;;;;2.65;1.40;;;22.00;62.60;;;;;;5050883;28;20194;-73
2021/06/02 13:23:43;;;;;;;1.17;1.00;;;22.40;62.40;;;;;;5048961;28;20262;-71
2021/06/02 13:26:13;;;;;;;3.33;1.20;;;22.80;61.30;;;;;;5051198;28;20187;-72
2021/06/02 13:28:54;;;;;;;3.22;0.90;;;23.60;58.70;;;;;;5045510;28;20218;-71
2021/06/02 13:31:23;;;;;;;1.50;1.33;;;24.70;57.70;;;;;;5048674;28;20221;-71